Estación Meteorológica Peña el Pijo (Robertgarden) [ 07/19/24 13:35:35 CEST ]

Fecha Hora Presion(HPa) Temp (°C) Humedad % Rocio (°C) Viento ( m/s) Direccion Lluvia 1Hora(mm) Lluvia 24H(mm) LLuvia Total(mm)
2010-Dec-14 01:01:11 1007.000 6.6 85 4.2         12.43
2010-Dec-14 02:03:18 1006.800 6.1 85 3.8         12.43
2010-Dec-14 03:01:17 1007.300 6.5 84 4.0         12.43
2010-Dec-14 04:01:16 1007.500 6.9 83 4.2         12.43
2010-Dec-14 05:01:13 1007.500 7.1 84 4.6         12.43
2010-Dec-14 06:01:11 1007.700 7.0 85 4.7         12.43
2010-Dec-14 07:01:16 1008.200 6.5 87 4.5         12.43
2010-Dec-14 08:01:14 1008.600 6.2 88 4.4         12.43
2010-Dec-14 09:01:12 1009.500 5.5 90 4.0         12.43
2010-Dec-14 10:01:12 1009.900 6.1 91 4.8         12.43
2010-Dec-14 11:01:11 1010.300 10.6 82 7.6         12.43
2010-Dec-14 12:01:11 1010.600 10.4 79 6.9         12.43
2010-Dec-14 13:01:13 1010.300 11.7 74 7.2         12.43
2010-Dec-14 14:01:12 1009.700 12.4 69 6.9         12.43
2010-Dec-14 15:01:13 1009.600 13.8 62 6.6         12.43
2010-Dec-14 16:01:14 1010.000 12.4 61 5.1         12.43
2010-Dec-14 17:01:14 1010.600 11.2 65 4.8         12.43
2010-Dec-14 18:01:14 1011.000 8.5 73 3.9         12.43
2010-Dec-14 19:01:17 1011.400 5.9 81 2.9         12.43
2010-Dec-14 20:01:16 1012.100 4.1 85 1.8         12.43
2010-Dec-14 21:01:16 1012.300 2.9 88 1.1         12.43
2010-Dec-14 22:01:12 1012.700 1.9 88 0.1         12.43
2010-Dec-14 23:01:14 1012.700 1.1 89 -0.6         12.43

Temperatura Máxima:13°    Temperatura Mínima:
Presión Máxima:1012.700 Hpa    Presión Mínima:1006.800 Hpa


Volver